Flight Track Log - Related Links

Times and Time Zones

All times are in EST time to prevent confusion due to time zone crossing. See the AAY894 flight status page for this flight to view local times or setup timezone preferences in your user account.

Time Position Orientation Groundspeed Altitude Reporting Facility
EST Latitude Longitude Course Direction KTS MPH feet Rate Location/Type
Thu 08:27:39 AM 27.9000 -82.6833 North 152 175 900  Level Tampa TRACON
Thu 08:28:57 AM 27.8333 -82.7000 192° South 210 242 2,000 1,631 Climbing Tampa TRACON
Thu 08:30:54 AM 27.9494 -82.7211 351° North 277 319 6,200 2,407 Climbing Jacksonville Center
Thu 08:31:54 AM 28.0289 -82.6975 15° North 283 326 9,100 2,350 Climbing Jacksonville Center
Thu 08:32:54 AM 28.1186 -82.6925 North 301 346 10,900 1,700 Climbing Jacksonville Center
Thu 08:33:00 AM 28.5806 -82.6500 North  Level FlightAware Approximate
Thu 08:33:54 AM 28.2250 -82.6875 North 337 388 12,500  Level Jacksonville Center
Thu 08:34:54 AM 28.3439 -82.6828 North 372 428 15,200 2,450 Climbing Jacksonville Center
Thu 08:35:54 AM 28.4606 -82.6753 North 400 460 17,400 2,100 Climbing Jacksonville Center
Thu 08:36:54 AM 28.5797 -82.6656 North 418 481 19,400 1,750 Climbing Jacksonville Center
Thu 08:37:54 AM 28.6778 -82.6583 North 424 488 20,900 1,600 Climbing Jacksonville Center
Thu 08:38:54 AM 28.8092 -82.6533 North 424 488 22,600 2,000 Climbing Jacksonville Center
Thu 08:39:54 AM 28.9511 -82.6458 North 442 509 24,900 1,700 Climbing Jacksonville Center
Thu 08:40:54 AM 29.0764 -82.6361 North 448 516 26,000 1,450 Climbing Jacksonville Center
Thu 08:41:54 AM 29.2014 -82.6286 North 448 516 27,800 1,800 Climbing Jacksonville Center
Thu 08:42:54 AM 29.3247 -82.6211 North 448 516 29,600 1,100 Climbing Jacksonville Center
Thu 08:43:54 AM 29.4458 -82.6136 North 437 503 30,000 400 Climbing Jacksonville Center
Thu 08:44:54 AM 29.5689 -82.6061 North 442 509 30,400 750 Climbing Jacksonville Center
Thu 08:45:54 AM 29.6900 -82.5986 North 437 503 31,500 1,050 Climbing Jacksonville Center
Thu 08:46:54 AM 29.8131 -82.5911 North 437 503 32,500 750 Climbing Jacksonville Center
Thu 08:47:54 AM 29.9342 -82.5833 North 437 503 33,000 250 Climbing Jacksonville Center
Thu 08:48:54 AM 30.0447 -82.5806 North 437 503 33,000 -50 Level Jacksonville Center
Thu 08:49:54 AM 30.1681 -82.5753 North 437 503 32,900  Descending Jacksonville Center
Thu 08:50:54 AM 30.2869 -82.5678 North 437 503 33,000 50 Climbing Jacksonville Center
Thu 08:51:54 AM 30.4103 -82.5603 North 437 503 33,000  Level Jacksonville Center
Thu 08:52:54 AM 30.5311 -82.5525 North 437 503 33,000 -50 Level Jacksonville Center
Thu 08:53:54 AM 30.6544 -82.5472 North 437 503 32,900  Descending Jacksonville Center
Thu 08:54:54 AM 30.7756 -82.5444 North 437 503 33,000 50 Climbing Jacksonville Center
Thu 08:55:54 AM 30.8986 -82.5367 North 437 503 33,000  Level Jacksonville Center
Thu 08:56:54 AM 31.0219 -82.5314 North 437 503 33,000  Level Jacksonville Center
Thu 08:57:54 AM 31.1450 -82.5261 North 437 503 33,000  Level Jacksonville Center
Thu 08:58:54 AM 31.2683 -82.5231 North 437 503 33,000  Level Jacksonville Center
Thu 08:59:54 AM 31.4039 -82.5128 North 437 503 33,000  Level Jacksonville Center
Thu 09:00:54 AM 31.5250 -82.5075 North 437 503 33,000  Level Jacksonville Center
Thu 09:02:27 AM 31.7158 -82.4836 North 457 526 33,000  Level Atlanta Center
Thu 09:03:27 AM 31.8389 -82.4619 North 457 526 33,000  Level Atlanta Center
Thu 09:04:27 AM 31.9594 -82.4428 North 444 511 33,000  Level Atlanta Center
Thu 09:05:27 AM 32.0825 -82.4233 North 444 511 33,000  Level Atlanta Center
Thu 09:06:27 AM 32.2053 -82.4042 North 444 511 33,000  Level Atlanta Center
Thu 09:07:27 AM 32.3242 -82.3847 North 438 504 33,000  Level Atlanta Center
Thu 09:08:27 AM 32.4428 -82.3653 North 438 504 33,000  Level Atlanta Center
Thu 09:09:27 AM 32.5656 -82.3456 North 438 504 33,000  Level Atlanta Center
Thu 09:10:27 AM 32.6886 -82.3283 North 438 504 33,000  Level Atlanta Center
Thu 09:11:27 AM 32.8094 -82.3064 North 443 510 33,000  Level Atlanta Center
Thu 09:12:27 AM 32.9342 -82.2864 North 443 510 33,000  Level Atlanta Center
Thu 09:13:27 AM 33.0550 -82.2692 North 443 510 33,000  Level Atlanta Center
Thu 09:14:27 AM 33.1758 -82.2494 North 443 510 33,000  Level Atlanta Center
Thu 09:15:27 AM 33.2986 -82.2294 North 443 510 33,000  Level Atlanta Center
Thu 09:16:27 AM 33.4153 -82.2097 North 443 510 33,000  Level Atlanta Center
Thu 09:17:27 AM 33.5403 -82.1869 North 443 510 33,000  Level Atlanta Center
Thu 09:18:27 AM 33.6631 -82.1694 North 443 510 33,000  Level Atlanta Center
Thu 09:19:27 AM 33.7733 -82.1494 North 443 510 33,000  Level Atlanta Center
Thu 09:20:27 AM 33.8961 -82.1267 North 443 510 33,000  Level Atlanta Center
Thu 09:21:27 AM 34.0192 -82.1064 North 443 510 33,000  Level Atlanta Center
Thu 09:22:27 AM 34.1419 -82.0861 North 443 510 33,000  Level Atlanta Center
Thu 09:23:27 AM 34.2625 -82.0658 North 443 510 33,000  Level Atlanta Center
Thu 09:24:27 AM 34.3853 -82.0428 North 443 510 33,000  Level Atlanta Center
Thu 09:25:27 AM 34.5061 -82.0222 North 443 510 33,000  Level Atlanta Center
Thu 09:26:27 AM 34.6267 -81.9992 North 443 510 33,000  Level Atlanta Center
Thu 09:27:27 AM 34.7536 -81.9808 North 448 516 33,000  Level Atlanta Center
Thu 09:28:27 AM 34.8764 -81.9575 North 448 516 33,000  Level Atlanta Center
Thu 09:29:27 AM 34.9992 -81.9394 North 443 510 33,000  Level Atlanta Center
Thu 09:30:27 AM 35.1197 -81.9083 12° North 443 510 33,000  Level Atlanta Center
Thu 09:31:27 AM 35.2422 -81.8722 14° North 448 516 33,000  Level Atlanta Center
Thu 09:32:27 AM 35.3628 -81.8383 13° North 448 516 33,000  Level Atlanta Center
Thu 09:33:27 AM 35.4831 -81.8019 14° North 448 516 33,000  Level Atlanta Center
Thu 09:34:27 AM 35.6056 -81.7706 12° North 448 516 33,000  Level Atlanta Center
Thu 09:35:27 AM 35.7258 -81.7339 14° North 448 516 33,000  Level Atlanta Center
Thu 09:36:27 AM 35.8461 -81.6972 14° North 448 516 33,000  Level Atlanta Center
Thu 09:37:27 AM 35.9769 -81.6603 13° North 448 516 33,000  Level Atlanta Center
Thu 09:38:27 AM 36.1014 -81.6256 13° North 448 516 33,000  Level Atlanta Center
Thu 09:39:27 AM 36.2214 -81.5886 14° North 448 516 33,000  Level Atlanta Center
Thu 09:41:41 AM 36.4781 -81.5117 14° North 447 514 33,000  Level Indianapolis Center
Thu 09:42:43 AM 36.5986 -81.4756 14° North 447 514 33,000  Level Indianapolis Center
Thu 09:43:45 AM 36.7403 -81.4342 13° North 447 514 33,000  Level Indianapolis Center
Thu 09:44:47 AM 36.8578 -81.3994 13° North 445 512 33,000  Level Indianapolis Center
Thu 09:45:48 AM 36.9781 -81.3642 13° North 444 511 33,000  Level Indianapolis Center
Thu 09:46:50 AM 37.0975 -81.3286 13° North 444 511 33,000  Level Indianapolis Center
Thu 09:47:52 AM 37.2156 -81.2936 13° North 442 509 33,000  Level Indianapolis Center
Thu 09:48:54 AM 37.3444 -81.2550 13° North 440 506 33,000  Level Indianapolis Center
Thu 09:49:56 AM 37.4594 -81.2200 14° North 439 505 33,000  Level Indianapolis Center
Thu 09:50:58 AM 37.5778 -81.1836 14° North 439 505 33,000  Level Indianapolis Center
Thu 09:52:00 AM 37.7183 -81.1408 14° North 441 507 33,000  Level Indianapolis Center
Thu 09:53:02 AM 37.8256 -81.1100 13° North 441 507 33,000  Level Indianapolis Center
Thu 09:54:04 AM 37.9442 -81.0753 13° North 441 507 33,000  Level Indianapolis Center
Thu 09:55:06 AM 38.0867 -81.0353 12° North 441 507 33,000  Level Indianapolis Center
Thu 09:56:08 AM 38.2058 -80.9997 13° North 441 507 33,000  Level Indianapolis Center
Thu 09:57:10 AM 38.3253 -80.9653 13° North 441 507 33,000  Level Indianapolis Center
Thu 09:58:12 AM 38.4433 -80.9303 13° North 440 506 33,000  Level Indianapolis Center
Thu 09:59:14 AM 38.5625 -80.8961 13° North 440 506 33,000  Level Indianapolis Center
Thu 10:00:16 AM 38.7050 -80.8528 13° North 440 506 33,000  Level Indianapolis Center
Thu 10:01:18 AM 38.8233 -80.8189 13° North 440 506 33,000  Level Indianapolis Center
Thu 10:02:20 AM 38.9411 -80.7833 13° North 440 506 33,000  Level Indianapolis Center
Thu 10:03:22 AM 39.0600 -80.7492 13° North 439 505 33,000  Level Indianapolis Center
Thu 10:04:24 AM 39.1783 -80.7125 14° North 439 505 33,000  Level Indianapolis Center
Thu 10:05:26 AM 39.2958 -80.6769 13° North 439 505 33,000  Level Indianapolis Center
Thu 10:06:28 AM 39.4411 -80.6267 15° North 445 512 33,000  Level Indianapolis Center
Thu 10:07:30 AM 39.5594 -80.5747 19° North 448 516 33,000  Level Indianapolis Center
Thu 10:08:32 AM 39.6792 -80.5242 18° North 449 517 33,000  Level Indianapolis Center
Thu 10:09:34 AM 39.7989 -80.4722 18° North 449 517 33,000  Level Indianapolis Center
Thu 10:10:36 AM 39.9186 -80.4225 18° North 451 519 33,000  Level Indianapolis Center
Thu 10:11:38 AM 40.0358 -80.3708 19° North 450 518 33,000  Level Indianapolis Center
Thu 10:12:40 AM 40.1764 -80.3092 19° North 446 513 33,000  Level Indianapolis Center
Thu 10:13:42 AM 40.2931 -80.2611 17° North 446 513 33,000 -137 Level Indianapolis Center
Thu 10:14:51 AM 40.4247 -80.2033 18° North 455 524 32,700 -641 Descending Cleveland Center
Thu 10:15:53 AM 40.5564 -80.1456 18° North 445 512 31,600 -823 Descending Cleveland Center
Thu 10:16:55 AM 40.6767 -80.0939 18° North 454 522 31,000 -435 Descending Cleveland Center
Thu 10:17:57 AM 40.7967 -80.0414 18° North 454 522 30,700 -532 Descending Cleveland Center
Thu 10:18:59 AM 40.9050 -79.9922 19° North 454 522 29,900 -1,073 Descending Cleveland Center
Thu 10:20:00 AM 41.0492 -79.9294 18° North 454 522 28,500 -1,220 Descending Cleveland Center
Thu 10:21:02 AM 41.1533 -79.8831 19° North 450 518 27,400 -1,113 Descending Cleveland Center
Thu 10:22:04 AM 41.2694 -79.8311 19° North 446 513 26,200 -1,065 Descending Cleveland Center
Thu 10:23:06 AM 41.4075 -79.7692 19° North 438 504 25,200 -581 Descending Cleveland Center
Thu 10:24:08 AM 41.5208 -79.7172 19° North 434 499 25,000 -98 Descending Cleveland Center
Thu 10:25:09 AM 41.6356 -79.6661 18° North 434 499 25,000  Level Cleveland Center
Thu 10:26:11 AM 41.7503 -79.6150 18° North 434 499 25,000 -1,065 Level Cleveland Center
Thu 10:27:13 AM 41.8644 -79.5611 19° North 434 499 22,800 -2,226 Descending Cleveland Center
Thu 10:28:15 AM 41.9767 -79.5103 19° North 426 490 20,400 -2,371 Descending Cleveland Center
Thu 10:29:17 AM 42.1094 -79.4506 18° North 421 484 17,900 -2,226 Descending Cleveland Center
Thu 10:30:19 AM 42.2200 -79.3986 19° North 421 484 15,800 -1,935 Descending Cleveland Center
Thu 10:31:21 AM 42.3308 -79.3481 19° North 421 484 13,900 -1,805 Descending Cleveland Center
Thu 10:32:22 AM 42.4381 -79.2983 19° North 412 474 12,100 -1,463 Descending Cleveland Center
Thu 10:33:24 AM 42.5439 -79.2475 19° North 382 440 10,900 -1,016 Descending Cleveland Center
Thu 10:34:26 AM 42.6386 -79.1961 22° Northeast 330 380 10,000 -1,113 Descending Cleveland Center
Thu 10:35:28 AM 42.7122 -79.1569 21° North 298 343 8,600 -1,355 Descending Cleveland Center
Thu 10:36:30 AM 42.7861 -79.0964 31° Northeast 303 349 7,200 -726 Descending Cleveland Center
Thu 10:37:32 AM 42.8572 -79.0261 36° Northeast 306 352 7,100 -194 Descending Cleveland Center
Thu 10:38:34 AM 42.9250 -78.9583 36° Northeast 294 338 6,800 -919 Descending Cleveland Center
Thu 10:39:36 AM 42.9925 -78.8922 36° Northeast 289 333 5,200 -1,452 Descending Cleveland Center
Thu 10:40:38 AM 43.0500 -78.8397 34° Northeast 248 285 3,800 -1,258 Descending Cleveland Center
Thu 10:41:40 AM 43.1008 -78.8383 North 185 213 2,600 -1,161 Descending Cleveland Center
Thu 10:42:42 AM 43.1092 -78.8800 285° West 150 173 1,400 -1,161 Descending Cleveland Center
Thu 10:44:00 AM 43.1000 -78.9333 26° Northeast  Level FlightAware Approximate
Thu 10:51:00 AM 43.1076 -78.9458 26° Northeast  Level Estimated

Login

Don't have an account? Register now (free) for customized features, flight alerts, and more!